sensor_id;sensor_type;location;lat;lon;timestamp;P1;durP1;ratioP1;P2;durP2;ratioP2
9942;SDS011;5010;45.080;7.634;2024-01-15T00:00:10;8.30;;;4.80;;
9942;SDS011;5010;45.080;7.634;2024-01-15T00:02:39;7.10;;;4.88;;
9942;SDS011;5010;45.080;7.634;2024-01-15T00:05:07;11.18;;;5.20;;
9942;SDS011;5010;45.080;7.634;2024-01-15T00:07:34;6.20;;;4.53;;
9942;SDS011;5010;45.080;7.634;2024-01-15T00:10:02;9.20;;;4.43;;
9942;SDS011;5010;45.080;7.634;2024-01-15T00:12:32;13.07;;;4.43;;
9942;SDS011;5010;45.080;7.634;2024-01-15T00:15:00;9.75;;;4.93;;
9942;SDS011;5010;45.080;7.634;2024-01-15T00:17:27;8.50;;;4.25;;
9942;SDS011;5010;45.080;7.634;2024-01-15T00:19:55;10.30;;;5.38;;
9942;SDS011;5010;45.080;7.634;2024-01-15T00:22:24;8.93;;;4.82;;
9942;SDS011;5010;45.080;7.634;2024-01-15T00:24:53;9.85;;;4.63;;
9942;SDS011;5010;45.080;7.634;2024-01-15T00:27:20;10.57;;;4.18;;
9942;SDS011;5010;45.080;7.634;2024-01-15T00:29:50;14.43;;;6.60;;
9942;SDS011;5010;45.080;7.634;2024-01-15T00:32:19;8.55;;;4.43;;
9942;SDS011;5010;45.080;7.634;2024-01-15T00:34:47;11.88;;;4.55;;
9942;SDS011;5010;45.080;7.634;2024-01-15T00:37:15;8.55;;;5.22;;
9942;SDS011;5010;45.080;7.634;2024-01-15T00:39:45;8.68;;;4.43;;
9942;SDS011;5010;45.080;7.634;2024-01-15T00:42:13;8.90;;;5.03;;
9942;SDS011;5010;45.080;7.634;2024-01-15T00:44:41;7.20;;;3.85;;
9942;SDS011;5010;45.080;7.634;2024-01-15T00:47:11;10.73;;;4.80;;
9942;SDS011;5010;45.080;7.634;2024-01-15T00:49:38;22.98;;;8.25;;
9942;SDS011;5010;45.080;7.634;2024-01-15T00:52:06;11.20;;;5.63;;
9942;SDS011;5010;45.080;7.634;2024-01-15T00:54:33;12.35;;;5.15;;
9942;SDS011;5010;45.080;7.634;2024-01-15T00:57:01;11.50;;;6.68;;
9942;SDS011;5010;45.080;7.634;2024-01-15T00:59:29;18.10;;;5.65;;
9942;SDS011;5010;45.080;7.634;2024-01-15T01:01:57;16.20;;;6.60;;
9942;SDS011;5010;45.080;7.634;2024-01-15T01:04:26;20.20;;;6.90;;
9942;SDS011;5010;45.080;7.634;2024-01-15T01:06:54;9.38;;;4.90;;
9942;SDS011;5010;45.080;7.634;2024-01-15T01:09:21;14.10;;;6.30;;
9942;SDS011;5010;45.080;7.634;2024-01-15T01:11:49;8.82;;;4.97;;
9942;SDS011;5010;45.080;7.634;2024-01-15T01:14:17;9.85;;;5.32;;
9942;SDS011;5010;45.080;7.634;2024-01-15T01:16:45;8.90;;;5.30;;
9942;SDS011;5010;45.080;7.634;2024-01-15T01:19:12;9.65;;;7.28;;
9942;SDS011;5010;45.080;7.634;2024-01-15T01:21:41;12.50;;;4.93;;
9942;SDS011;5010;45.080;7.634;2024-01-15T01:24:09;9.63;;;5.68;;
9942;SDS011;5010;45.080;7.634;2024-01-15T01:26:37;10.27;;;6.18;;
9942;SDS011;5010;45.080;7.634;2024-01-15T01:29:04;10.90;;;5.57;;
9942;SDS011;5010;45.080;7.634;2024-01-15T01:31:32;12.18;;;6.28;;
9942;SDS011;5010;45.080;7.634;2024-01-15T01:33:59;11.23;;;6.55;;
9942;SDS011;5010;45.080;7.634;2024-01-15T01:36:27;9.15;;;4.57;;
9942;SDS011;5010;45.080;7.634;2024-01-15T01:38:56;10.35;;;6.40;;
9942;SDS011;5010;45.080;7.634;2024-01-15T01:41:24;9.73;;;4.97;;
9942;SDS011;5010;45.080;7.634;2024-01-15T01:43:51;10.75;;;5.30;;
9942;SDS011;5010;45.080;7.634;2024-01-15T01:46:19;7.18;;;5.68;;
9942;SDS011;5010;45.080;7.634;2024-01-15T01:48:47;10.18;;;5.50;;
9942;SDS011;5010;45.080;7.634;2024-01-15T01:51:15;9.70;;;5.22;;
9942;SDS011;5010;45.080;7.634;2024-01-15T01:53:44;9.85;;;5.97;;
9942;SDS011;5010;45.080;7.634;2024-01-15T01:56:14;9.13;;;4.22;;
9942;SDS011;5010;45.080;7.634;2024-01-15T01:58:42;12.90;;;5.95;;
9942;SDS011;5010;45.080;7.634;2024-01-15T02:01:10;10.73;;;5.50;;
9942;SDS011;5010;45.080;7.634;2024-01-15T02:03:39;9.23;;;4.55;;
9942;SDS011;5010;45.080;7.634;2024-01-15T02:06:07;12.80;;;5.57;;
9942;SDS011;5010;45.080;7.634;2024-01-15T02:08:35;11.32;;;4.10;;
9942;SDS011;5010;45.080;7.634;2024-01-15T02:11:04;10.68;;;4.95;;
9942;SDS011;5010;45.080;7.634;2024-01-15T02:13:33;9.82;;;5.25;;
9942;SDS011;5010;45.080;7.634;2024-01-15T02:16:01;11.13;;;5.05;;
9942;SDS011;5010;45.080;7.634;2024-01-15T02:18:29;7.70;;;7.07;;
9942;SDS011;5010;45.080;7.634;2024-01-15T02:21:05;10.65;;;5.05;;
9942;SDS011;5010;45.080;7.634;2024-01-15T02:23:34;8.82;;;3.97;;
9942;SDS011;5010;45.080;7.634;2024-01-15T02:26:02;10.73;;;5.30;;
9942;SDS011;5010;45.080;7.634;2024-01-15T02:28:31;13.02;;;5.95;;
9942;SDS011;5010;45.080;7.634;2024-01-15T02:31:00;10.65;;;6.10;;
9942;SDS011;5010;45.080;7.634;2024-01-15T02:33:28;11.48;;;5.90;;
9942;SDS011;5010;45.080;7.634;2024-01-15T02:35:55;10.57;;;5.90;;
9942;SDS011;5010;45.080;7.634;2024-01-15T02:38:23;9.25;;;6.15;;
9942;SDS011;5010;45.080;7.634;2024-01-15T02:40:52;14.63;;;6.80;;
9942;SDS011;5010;45.080;7.634;2024-01-15T02:43:20;12.98;;;8.02;;
9942;SDS011;5010;45.080;7.634;2024-01-15T02:45:47;8.35;;;5.32;;
9942;SDS011;5010;45.080;7.634;2024-01-15T02:48:15;14.82;;;8.07;;
9942;SDS011;5010;45.080;7.634;2024-01-15T02:50:43;10.05;;;5.60;;
9942;SDS011;5010;45.080;7.634;2024-01-15T02:53:10;9.43;;;6.38;;
9942;SDS011;5010;45.080;7.634;2024-01-15T02:55:38;11.10;;;5.97;;
9942;SDS011;5010;45.080;7.634;2024-01-15T02:58:07;10.30;;;5.60;;
9942;SDS011;5010;45.080;7.634;2024-01-15T03:00:35;9.98;;;6.53;;
9942;SDS011;5010;45.080;7.634;2024-01-15T03:03:02;11.00;;;6.13;;
9942;SDS011;5010;45.080;7.634;2024-01-15T03:05:30;11.90;;;6.65;;
9942;SDS011;5010;45.080;7.634;2024-01-15T03:07:57;8.70;;;5.07;;
9942;SDS011;5010;45.080;7.634;2024-01-15T03:10:25;9.30;;;6.20;;
9942;SDS011;5010;45.080;7.634;2024-01-15T03:12:53;8.25;;;5.40;;
9942;SDS011;5010;45.080;7.634;2024-01-15T03:15:22;10.05;;;6.38;;
9942;SDS011;5010;45.080;7.634;2024-01-15T03:17:49;9.88;;;5.88;;
9942;SDS011;5010;45.080;7.634;2024-01-15T03:20:17;7.78;;;5.18;;
9942;SDS011;5010;45.080;7.634;2024-01-15T03:22:45;10.02;;;4.95;;
9942;SDS011;5010;45.080;7.634;2024-01-15T03:25:13;8.65;;;6.50;;
9942;SDS011;5010;45.080;7.634;2024-01-15T03:27:40;8.10;;;5.00;;
9942;SDS011;5010;45.080;7.634;2024-01-15T03:30:08;8.93;;;5.20;;
9942;SDS011;5010;45.080;7.634;2024-01-15T03:32:38;14.85;;;6.25;;
9942;SDS011;5010;45.080;7.634;2024-01-15T03:35:06;9.25;;;4.45;;
9942;SDS011;5010;45.080;7.634;2024-01-15T03:37:34;11.27;;;6.78;;
9942;SDS011;5010;45.080;7.634;2024-01-15T03:40:02;12.13;;;5.38;;
9942;SDS011;5010;45.080;7.634;2024-01-15T03:42:30;10.15;;;7.45;;
9942;SDS011;5010;45.080;7.634;2024-01-15T03:44:58;9.50;;;5.68;;
9942;SDS011;5010;45.080;7.634;2024-01-15T03:47:26;10.65;;;5.75;;
9942;SDS011;5010;45.080;7.634;2024-01-15T03:49:55;10.38;;;7.70;;
9942;SDS011;5010;45.080;7.634;2024-01-15T03:52:22;11.50;;;4.97;;
9942;SDS011;5010;45.080;7.634;2024-01-15T03:54:50;10.05;;;6.63;;
9942;SDS011;5010;45.080;7.634;2024-01-15T03:57:17;6.68;;;5.05;;
9942;SDS011;5010;45.080;7.634;2024-01-15T03:59:45;9.35;;;6.50;;
9942;SDS011;5010;45.080;7.634;2024-01-15T04:02:13;9.07;;;4.95;;
9942;SDS011;5010;45.080;7.634;2024-01-15T04:04:41;7.65;;;4.95;;
9942;SDS011;5010;45.080;7.634;2024-01-15T04:07:10;11.95;;;5.28;;
9942;SDS011;5010;45.080;7.634;2024-01-15T04:09:38;7.80;;;5.00;;
9942;SDS011;5010;45.080;7.634;2024-01-15T04:12:06;8.82;;;5.80;;
9942;SDS011;5010;45.080;7.634;2024-01-15T04:14:34;10.32;;;5.90;;
9942;SDS011;5010;45.080;7.634;2024-01-15T04:17:01;8.90;;;6.13;;
9942;SDS011;5010;45.080;7.634;2024-01-15T04:19:29;11.73;;;4.95;;
9942;SDS011;5010;45.080;7.634;2024-01-15T04:21:56;12.15;;;5.32;;
9942;SDS011;5010;45.080;7.634;2024-01-15T04:24:25;8.73;;;6.43;;
9942;SDS011;5010;45.080;7.634;2024-01-15T04:26:53;9.32;;;4.72;;
9942;SDS011;5010;45.080;7.634;2024-01-15T04:29:20;11.30;;;5.90;;
9942;SDS011;5010;45.080;7.634;2024-01-15T04:31:48;16.02;;;7.30;;
9942;SDS011;5010;45.080;7.634;2024-01-15T04:34:16;8.30;;;5.25;;
9942;SDS011;5010;45.080;7.634;2024-01-15T04:36:43;9.63;;;4.75;;
9942;SDS011;5010;45.080;7.634;2024-01-15T04:39:11;16.92;;;6.93;;
9942;SDS011;5010;45.080;7.634;2024-01-15T04:41:40;18.23;;;6.22;;
9942;SDS011;5010;45.080;7.634;2024-01-15T04:44:07;10.57;;;5.00;;
9942;SDS011;5010;45.080;7.634;2024-01-15T04:46:35;8.55;;;5.97;;
9942;SDS011;5010;45.080;7.634;2024-01-15T04:49:02;13.05;;;6.38;;
9942;SDS011;5010;45.080;7.634;2024-01-15T04:51:30;11.15;;;5.78;;
9942;SDS011;5010;45.080;7.634;2024-01-15T04:53:58;12.05;;;6.10;;
9942;SDS011;5010;45.080;7.634;2024-01-15T04:56:25;14.85;;;6.43;;
9942;SDS011;5010;45.080;7.634;2024-01-15T04:58:54;13.40;;;6.30;;
9942;SDS011;5010;45.080;7.634;2024-01-15T07:01:59;8.77;;;5.20;;
9942;SDS011;5010;45.080;7.634;2024-01-15T07:04:27;6.75;;;4.30;;
9942;SDS011;5010;45.080;7.634;2024-01-15T07:06:54;11.82;;;5.97;;
9942;SDS011;5010;45.080;7.634;2024-01-15T07:09:22;12.07;;;6.13;;
9942;SDS011;5010;45.080;7.634;2024-01-15T07:11:50;8.65;;;4.30;;
9942;SDS011;5010;45.080;7.634;2024-01-15T07:14:18;10.63;;;7.40;;
9942;SDS011;5010;45.080;7.634;2024-01-15T07:16:46;15.57;;;9.05;;
9942;SDS011;5010;45.080;7.634;2024-01-15T07:19:16;16.40;;;6.32;;
9942;SDS011;5010;45.080;7.634;2024-01-15T07:25:06;15.65;;;8.98;;
9942;SDS011;5010;45.080;7.634;2024-01-15T07:27:34;10.45;;;6.28;;
9942;SDS011;5010;45.080;7.634;2024-01-15T07:43:30;11.93;;;6.90;;
9942;SDS011;5010;45.080;7.634;2024-01-15T07:45:59;11.25;;;5.88;;
9942;SDS011;5010;45.080;7.634;2024-01-15T07:48:27;9.60;;;6.95;;
9942;SDS011;5010;45.080;7.634;2024-01-15T07:50:55;16.00;;;7.97;;
9942;SDS011;5010;45.080;7.634;2024-01-15T07:53:23;10.60;;;5.40;;
9942;SDS011;5010;45.080;7.634;2024-01-15T07:55:51;12.00;;;6.32;;
9942;SDS011;5010;45.080;7.634;2024-01-15T07:58:19;13.55;;;6.50;;
9942;SDS011;5010;45.080;7.634;2024-01-15T08:00:48;11.02;;;7.45;;
9942;SDS011;5010;45.080;7.634;2024-01-15T08:03:17;16.95;;;6.35;;
9942;SDS011;5010;45.080;7.634;2024-01-15T08:05:45;13.90;;;5.60;;
9942;SDS011;5010;45.080;7.634;2024-01-15T08:08:16;10.90;;;5.78;;
9942;SDS011;5010;45.080;7.634;2024-01-15T08:10:44;10.30;;;5.85;;
9942;SDS011;5010;45.080;7.634;2024-01-15T08:13:12;10.40;;;6.03;;
9942;SDS011;5010;45.080;7.634;2024-01-15T08:15:40;13.23;;;6.22;;
9942;SDS011;5010;45.080;7.634;2024-01-15T08:18:09;12.07;;;5.93;;
9942;SDS011;5010;45.080;7.634;2024-01-15T08:20:37;9.43;;;5.47;;
9942;SDS011;5010;45.080;7.634;2024-01-15T08:23:05;13.02;;;7.18;;
9942;SDS011;5010;45.080;7.634;2024-01-15T08:25:34;10.77;;;7.68;;
9942;SDS011;5010;45.080;7.634;2024-01-15T08:28:02;11.18;;;5.90;;
9942;SDS011;5010;45.080;7.634;2024-01-15T08:30:30;9.05;;;6.32;;
9942;SDS011;5010;45.080;7.634;2024-01-15T08:32:58;11.23;;;7.20;;
9942;SDS011;5010;45.080;7.634;2024-01-15T08:35:28;10.18;;;6.63;;
9942;SDS011;5010;45.080;7.634;2024-01-15T08:37:56;21.52;;;10.38;;
9942;SDS011;5010;45.080;7.634;2024-01-15T08:40:24;13.18;;;7.60;;
9942;SDS011;5010;45.080;7.634;2024-01-15T08:42:52;13.90;;;8.02;;
9942;SDS011;5010;45.080;7.634;2024-01-15T08:45:20;18.52;;;8.60;;
9942;SDS011;5010;45.080;7.634;2024-01-15T08:47:48;12.27;;;7.55;;
9942;SDS011;5010;45.080;7.634;2024-01-15T08:50:16;17.80;;;10.35;;
9942;SDS011;5010;45.080;7.634;2024-01-15T08:52:46;20.77;;;9.20;;
9942;SDS011;5010;45.080;7.634;2024-01-15T08:55:14;12.77;;;8.60;;
9942;SDS011;5010;45.080;7.634;2024-01-15T08:57:42;11.70;;;6.28;;
9942;SDS011;5010;45.080;7.634;2024-01-15T09:00:10;16.27;;;7.97;;
9942;SDS011;5010;45.080;7.634;2024-01-15T09:02:39;10.38;;;7.28;;
9942;SDS011;5010;45.080;7.634;2024-01-15T09:05:07;11.00;;;6.85;;
9942;SDS011;5010;45.080;7.634;2024-01-15T09:07:35;11.90;;;7.72;;
9942;SDS011;5010;45.080;7.634;2024-01-15T09:10:05;12.50;;;6.68;;
9942;SDS011;5010;45.080;7.634;2024-01-15T09:12:34;12.85;;;7.20;;
9942;SDS011;5010;45.080;7.634;2024-01-15T09:15:01;16.27;;;6.25;;
9942;SDS011;5010;45.080;7.634;2024-01-15T09:17:31;9.95;;;6.35;;
9942;SDS011;5010;45.080;7.634;2024-01-15T09:19:59;16.95;;;7.82;;
9942;SDS011;5010;45.080;7.634;2024-01-15T09:22:27;14.45;;;8.38;;
9942;SDS011;5010;45.080;7.634;2024-01-15T09:24:55;9.63;;;7.18;;
9942;SDS011;5010;45.080;7.634;2024-01-15T09:27:25;17.30;;;7.43;;
9942;SDS011;5010;45.080;7.634;2024-01-15T09:29:53;15.50;;;9.48;;
9942;SDS011;5010;45.080;7.634;2024-01-15T09:32:21;15.70;;;10.43;;
9942;SDS011;5010;45.080;7.634;2024-01-15T09:34:49;14.75;;;9.93;;
9942;SDS011;5010;45.080;7.634;2024-01-15T09:37:17;20.98;;;11.18;;
9942;SDS011;5010;45.080;7.634;2024-01-15T09:39:45;12.05;;;9.40;;
9942;SDS011;5010;45.080;7.634;2024-01-15T09:42:13;12.68;;;8.02;;
9942;SDS011;5010;45.080;7.634;2024-01-15T09:44:43;11.45;;;7.70;;
9942;SDS011;5010;45.080;7.634;2024-01-15T09:47:12;15.57;;;9.68;;
9942;SDS011;5010;45.080;7.634;2024-01-15T09:49:41;17.23;;;10.55;;
9942;SDS011;5010;45.080;7.634;2024-01-15T09:52:09;12.65;;;9.05;;
9942;SDS011;5010;45.080;7.634;2024-01-15T09:54:38;15.48;;;10.40;;
9942;SDS011;5010;45.080;7.634;2024-01-15T09:57:07;16.98;;;9.48;;
9942;SDS011;5010;45.080;7.634;2024-01-15T09:59:35;15.45;;;9.70;;
9942;SDS011;5010;45.080;7.634;2024-01-15T10:02:06;16.08;;;9.13;;
9942;SDS011;5010;45.080;7.634;2024-01-15T10:04:35;14.73;;;9.98;;
9942;SDS011;5010;45.080;7.634;2024-01-15T10:07:03;17.27;;;9.38;;
9942;SDS011;5010;45.080;7.634;2024-01-15T10:09:33;12.77;;;7.70;;
9942;SDS011;5010;45.080;7.634;2024-01-15T10:12:01;11.30;;;8.40;;
9942;SDS011;5010;45.080;7.634;2024-01-15T10:14:29;15.40;;;8.43;;
9942;SDS011;5010;45.080;7.634;2024-01-15T10:16:58;13.73;;;9.18;;
9942;SDS011;5010;45.080;7.634;2024-01-15T10:19:27;12.68;;;10.10;;
9942;SDS011;5010;45.080;7.634;2024-01-15T10:21:57;12.15;;;8.02;;
9942;SDS011;5010;45.080;7.634;2024-01-15T10:24:25;12.18;;;7.05;;
9942;SDS011;5010;45.080;7.634;2024-01-15T10:27:03;11.10;;;7.15;;
9942;SDS011;5010;45.080;7.634;2024-01-15T10:29:32;12.38;;;7.50;;
9942;SDS011;5010;45.080;7.634;2024-01-15T10:32:00;13.70;;;7.35;;
9942;SDS011;5010;45.080;7.634;2024-01-15T10:34:30;16.60;;;8.50;;
9942;SDS011;5010;45.080;7.634;2024-01-15T10:36:58;14.57;;;10.30;;
9942;SDS011;5010;45.080;7.634;2024-01-15T10:39:26;16.40;;;9.80;;
9942;SDS011;5010;45.080;7.634;2024-01-15T10:41:54;22.60;;;8.48;;
9942;SDS011;5010;45.080;7.634;2024-01-15T10:44:22;16.38;;;7.88;;
9942;SDS011;5010;45.080;7.634;2024-01-15T10:46:50;17.58;;;8.98;;
9942;SDS011;5010;45.080;7.634;2024-01-15T10:49:19;16.50;;;10.10;;
9942;SDS011;5010;45.080;7.634;2024-01-15T10:51:51;12.90;;;8.57;;
9942;SDS011;5010;45.080;7.634;2024-01-15T10:54:20;14.38;;;7.95;;
9942;SDS011;5010;45.080;7.634;2024-01-15T10:56:49;17.02;;;9.35;;
9942;SDS011;5010;45.080;7.634;2024-01-15T10:59:19;11.75;;;6.40;;
9942;SDS011;5010;45.080;7.634;2024-01-15T11:01:48;13.20;;;7.82;;
9942;SDS011;5010;45.080;7.634;2024-01-15T11:04:19;13.50;;;9.10;;
9942;SDS011;5010;45.080;7.634;2024-01-15T11:06:49;14.00;;;9.27;;
9942;SDS011;5010;45.080;7.634;2024-01-15T11:09:20;17.02;;;9.50;;
9942;SDS011;5010;45.080;7.634;2024-01-15T11:11:48;16.25;;;8.77;;
9942;SDS011;5010;45.080;7.634;2024-01-15T11:14:35;16.52;;;8.77;;
9942;SDS011;5010;45.080;7.634;2024-01-15T11:17:06;18.83;;;11.40;;
9942;SDS011;5010;45.080;7.634;2024-01-15T11:19:35;14.68;;;10.27;;
9942;SDS011;5010;45.080;7.634;2024-01-15T11:22:07;15.63;;;12.70;;
9942;SDS011;5010;45.080;7.634;2024-01-15T11:24:37;22.10;;;13.07;;
9942;SDS011;5010;45.080;7.634;2024-01-15T11:27:06;21.80;;;10.60;;
9942;SDS011;5010;45.080;7.634;2024-01-15T11:29:35;17.10;;;10.40;;
9942;SDS011;5010;45.080;7.634;2024-01-15T11:32:06;22.00;;;13.13;;
9942;SDS011;5010;45.080;7.634;2024-01-15T11:34:50;20.67;;;13.20;;
9942;SDS011;5010;45.080;7.634;2024-01-15T11:37:21;21.33;;;11.55;;
9942;SDS011;5010;45.080;7.634;2024-01-15T11:39:50;19.48;;;12.35;;
9942;SDS011;5010;45.080;7.634;2024-01-15T11:42:19;27.10;;;12.20;;
9942;SDS011;5010;45.080;7.634;2024-01-15T11:44:49;27.08;;;16.33;;
9942;SDS011;5010;45.080;7.634;2024-01-15T11:47:33;24.75;;;15.75;;
9942;SDS011;5010;45.080;7.634;2024-01-15T11:50:23;23.48;;;15.30;;
9942;SDS011;5010;45.080;7.634;2024-01-15T11:52:58;22.45;;;14.20;;
9942;SDS011;5010;45.080;7.634;2024-01-15T11:55:29;21.95;;;15.30;;
9942;SDS011;5010;45.080;7.634;2024-01-15T11:58:01;21.95;;;13.52;;
9942;SDS011;5010;45.080;7.634;2024-01-15T12:00:31;22.75;;;16.67;;
9942;SDS011;5010;45.080;7.634;2024-01-15T12:02:59;20.40;;;15.35;;
9942;SDS011;5010;45.080;7.634;2024-01-15T12:05:28;21.83;;;15.90;;
9942;SDS011;5010;45.080;7.634;2024-01-15T12:07:57;25.45;;;16.98;;
9942;SDS011;5010;45.080;7.634;2024-01-15T12:10:25;25.33;;;16.88;;
9942;SDS011;5010;45.080;7.634;2024-01-15T12:12:57;22.10;;;16.02;;
9942;SDS011;5010;45.080;7.634;2024-01-15T12:15:26;23.70;;;15.95;;
9942;SDS011;5010;45.080;7.634;2024-01-15T12:17:55;24.58;;;18.48;;
9942;SDS011;5010;45.080;7.634;2024-01-15T12:20:24;22.88;;;17.75;;
9942;SDS011;5010;45.080;7.634;2024-01-15T12:22:52;23.55;;;19.23;;
9942;SDS011;5010;45.080;7.634;2024-01-15T12:25:22;27.50;;;16.48;;
9942;SDS011;5010;45.080;7.634;2024-01-15T12:27:52;29.02;;;18.52;;
9942;SDS011;5010;45.080;7.634;2024-01-15T12:30:20;29.40;;;17.17;;
9942;SDS011;5010;45.080;7.634;2024-01-15T12:32:48;24.67;;;19.23;;
9942;SDS011;5010;45.080;7.634;2024-01-15T12:35:17;24.70;;;17.33;;
9942;SDS011;5010;45.080;7.634;2024-01-15T12:37:45;27.63;;;17.67;;
9942;SDS011;5010;45.080;7.634;2024-01-15T12:40:18;24.40;;;18.40;;
9942;SDS011;5010;45.080;7.634;2024-01-15T12:42:48;24.77;;;16.75;;
9942;SDS011;5010;45.080;7.634;2024-01-15T12:45:16;27.05;;;20.13;;
9942;SDS011;5010;45.080;7.634;2024-01-15T12:47:45;23.73;;;17.08;;
9942;SDS011;5010;45.080;7.634;2024-01-15T12:50:13;21.85;;;18.95;;
9942;SDS011;5010;45.080;7.634;2024-01-15T12:52:41;23.67;;;16.92;;
9942;SDS011;5010;45.080;7.634;2024-01-15T12:55:09;26.65;;;17.95;;
9942;SDS011;5010;45.080;7.634;2024-01-15T12:57:39;28.10;;;17.10;;
9942;SDS011;5010;45.080;7.634;2024-01-15T13:00:09;27.45;;;18.17;;
9942;SDS011;5010;45.080;7.634;2024-01-15T13:02:38;23.15;;;18.70;;
9942;SDS011;5010;45.080;7.634;2024-01-15T13:05:07;29.65;;;17.38;;
9942;SDS011;5010;45.080;7.634;2024-01-15T13:07:36;30.48;;;17.23;;
9942;SDS011;5010;45.080;7.634;2024-01-15T13:10:04;24.13;;;15.52;;
9942;SDS011;5010;45.080;7.634;2024-01-15T13:12:34;23.27;;;16.73;;
9942;SDS011;5010;45.080;7.634;2024-01-15T13:15:02;23.63;;;16.55;;
9942;SDS011;5010;45.080;7.634;2024-01-15T13:17:32;22.25;;;15.25;;
9942;SDS011;5010;45.080;7.634;2024-01-15T13:19:59;24.98;;;15.40;;
9942;SDS011;5010;45.080;7.634;2024-01-15T13:22:28;28.95;;;17.58;;
9942;SDS011;5010;45.080;7.634;2024-01-15T13:24:57;21.00;;;14.73;;
9942;SDS011;5010;45.080;7.634;2024-01-15T13:27:25;27.17;;;16.75;;
9942;SDS011;5010;45.080;7.634;2024-01-15T13:29:53;23.45;;;16.65;;
9942;SDS011;5010;45.080;7.634;2024-01-15T13:32:23;29.40;;;18.38;;
9942;SDS011;5010;45.080;7.634;2024-01-15T13:34:54;27.08;;;18.23;;
9942;SDS011;5010;45.080;7.634;2024-01-15T13:37:22;24.35;;;15.13;;
9942;SDS011;5010;45.080;7.634;2024-01-15T13:39:50;21.73;;;15.20;;
9942;SDS011;5010;45.080;7.634;2024-01-15T13:42:18;19.08;;;15.20;;
9942;SDS011;5010;45.080;7.634;2024-01-15T13:44:47;23.02;;;16.08;;
9942;SDS011;5010;45.080;7.634;2024-01-15T13:47:15;24.70;;;15.40;;
9942;SDS011;5010;45.080;7.634;2024-01-15T13:49:43;23.58;;;16.17;;
9942;SDS011;5010;45.080;7.634;2024-01-15T13:52:13;21.95;;;15.75;;
9942;SDS011;5010;45.080;7.634;2024-01-15T13:54:40;26.58;;;17.75;;
9942;SDS011;5010;45.080;7.634;2024-01-15T13:57:08;24.75;;;18.38;;
9942;SDS011;5010;45.080;7.634;2024-01-15T13:59:36;21.45;;;15.52;;
9942;SDS011;5010;45.080;7.634;2024-01-15T14:02:04;24.55;;;16.98;;
9942;SDS011;5010;45.080;7.634;2024-01-15T14:04:32;19.85;;;13.95;;
9942;SDS011;5010;45.080;7.634;2024-01-15T14:07:00;17.65;;;14.20;;
9942;SDS011;5010;45.080;7.634;2024-01-15T14:09:29;26.48;;;14.05;;
9942;SDS011;5010;45.080;7.634;2024-01-15T14:11:57;22.42;;;16.05;;
9942;SDS011;5010;45.080;7.634;2024-01-15T14:14:25;23.55;;;16.60;;
9942;SDS011;5010;45.080;7.634;2024-01-15T14:16:53;23.02;;;15.07;;
9942;SDS011;5010;45.080;7.634;2024-01-15T14:19:21;24.50;;;15.13;;
9942;SDS011;5010;45.080;7.634;2024-01-15T14:21:48;27.27;;;16.63;;
9942;SDS011;5010;45.080;7.634;2024-01-15T14:24:16;28.90;;;15.90;;
9942;SDS011;5010;45.080;7.634;2024-01-15T14:26:46;20.50;;;14.45;;
9942;SDS011;5010;45.080;7.634;2024-01-15T14:29:13;21.33;;;15.68;;
9942;SDS011;5010;45.080;7.634;2024-01-15T14:31:41;22.63;;;14.05;;
9942;SDS011;5010;45.080;7.634;2024-01-15T14:34:09;25.13;;;16.83;;
9942;SDS011;5010;45.080;7.634;2024-01-15T14:36:37;20.67;;;15.98;;
9942;SDS011;5010;45.080;7.634;2024-01-15T14:39:06;23.88;;;15.50;;
9942;SDS011;5010;45.080;7.634;2024-01-15T14:41:35;29.45;;;15.65;;
9942;SDS011;5010;45.080;7.634;2024-01-15T14:44:04;27.48;;;16.02;;
9942;SDS011;5010;45.080;7.634;2024-01-15T14:46:32;21.67;;;15.30;;
9942;SDS011;5010;45.080;7.634;2024-01-15T14:48:59;29.40;;;15.55;;
9942;SDS011;5010;45.080;7.634;2024-01-15T14:51:27;30.38;;;16.92;;
9942;SDS011;5010;45.080;7.634;2024-01-15T14:53:55;24.75;;;16.92;;
9942;SDS011;5010;45.080;7.634;2024-01-15T14:56:23;23.25;;;15.07;;
9942;SDS011;5010;45.080;7.634;2024-01-15T14:58:52;25.65;;;15.20;;
9942;SDS011;5010;45.080;7.634;2024-01-15T15:01:20;30.00;;;16.77;;
9942;SDS011;5010;45.080;7.634;2024-01-15T15:03:49;24.20;;;15.57;;
9942;SDS011;5010;45.080;7.634;2024-01-15T15:06:17;20.45;;;14.90;;
9942;SDS011;5010;45.080;7.634;2024-01-15T15:08:46;22.65;;;14.85;;
9942;SDS011;5010;45.080;7.634;2024-01-15T15:11:14;26.90;;;14.07;;
9942;SDS011;5010;45.080;7.634;2024-01-15T15:13:41;23.85;;;14.02;;
9942;SDS011;5010;45.080;7.634;2024-01-15T15:16:09;21.48;;;14.48;;
9942;SDS011;5010;45.080;7.634;2024-01-15T15:18:39;18.52;;;12.90;;
9942;SDS011;5010;45.080;7.634;2024-01-15T15:21:08;20.33;;;14.48;;
9942;SDS011;5010;45.080;7.634;2024-01-15T15:23:36;26.30;;;14.82;;
9942;SDS011;5010;45.080;7.634;2024-01-15T15:26:05;20.58;;;13.38;;
9942;SDS011;5010;45.080;7.634;2024-01-15T15:28:32;23.33;;;12.93;;
9942;SDS011;5010;45.080;7.634;2024-01-15T15:31:02;22.60;;;14.55;;
9942;SDS011;5010;45.080;7.634;2024-01-15T15:33:30;28.42;;;16.63;;
9942;SDS011;5010;45.080;7.634;2024-01-15T15:36:00;28.35;;;14.80;;
9942;SDS011;5010;45.080;7.634;2024-01-15T15:38:30;16.63;;;13.40;;
9942;SDS011;5010;45.080;7.634;2024-01-15T15:40:58;23.20;;;14.45;;
9942;SDS011;5010;45.080;7.634;2024-01-15T15:43:26;25.08;;;15.15;;
9942;SDS011;5010;45.080;7.634;2024-01-15T15:45:54;22.63;;;13.70;;
9942;SDS011;5010;45.080;7.634;2024-01-15T15:48:23;21.02;;;14.80;;
9942;SDS011;5010;45.080;7.634;2024-01-15T15:50:50;16.33;;;13.20;;
9942;SDS011;5010;45.080;7.634;2024-01-15T15:53:20;20.08;;;15.02;;
9942;SDS011;5010;45.080;7.634;2024-01-15T15:55:48;24.45;;;13.55;;
9942;SDS011;5010;45.080;7.634;2024-01-15T15:58:16;26.42;;;15.30;;
9942;SDS011;5010;45.080;7.634;2024-01-15T16:00:43;26.23;;;14.55;;
9942;SDS011;5010;45.080;7.634;2024-01-15T16:03:11;23.15;;;13.90;;
9942;SDS011;5010;45.080;7.634;2024-01-15T16:05:39;20.60;;;14.00;;
9942;SDS011;5010;45.080;7.634;2024-01-15T16:08:07;21.02;;;13.85;;
9942;SDS011;5010;45.080;7.634;2024-01-15T16:10:37;25.83;;;13.35;;
9942;SDS011;5010;45.080;7.634;2024-01-15T16:13:05;27.98;;;14.45;;
9942;SDS011;5010;45.080;7.634;2024-01-15T16:15:33;25.98;;;13.80;;
9942;SDS011;5010;45.080;7.634;2024-01-15T16:18:00;22.38;;;15.82;;
9942;SDS011;5010;45.080;7.634;2024-01-15T16:20:37;26.05;;;14.73;;
9942;SDS011;5010;45.080;7.634;2024-01-15T16:23:07;23.40;;;12.63;;
9942;SDS011;5010;45.080;7.634;2024-01-15T16:25:36;18.00;;;12.93;;
9942;SDS011;5010;45.080;7.634;2024-01-15T16:28:05;19.88;;;15.77;;
9942;SDS011;5010;45.080;7.634;2024-01-15T16:30:33;17.63;;;13.38;;
9942;SDS011;5010;45.080;7.634;2024-01-15T16:33:01;27.90;;;15.93;;
9942;SDS011;5010;45.080;7.634;2024-01-15T16:35:29;25.90;;;15.63;;
9942;SDS011;5010;45.080;7.634;2024-01-15T16:37:57;27.45;;;18.10;;
9942;SDS011;5010;45.080;7.634;2024-01-15T16:40:24;25.40;;;16.52;;
9942;SDS011;5010;45.080;7.634;2024-01-15T16:42:54;24.30;;;16.00;;
9942;SDS011;5010;45.080;7.634;2024-01-15T16:45:22;28.77;;;19.25;;
9942;SDS011;5010;45.080;7.634;2024-01-15T16:47:50;31.83;;;19.15;;
9942;SDS011;5010;45.080;7.634;2024-01-15T16:50:18;29.30;;;19.75;;
9942;SDS011;5010;45.080;7.634;2024-01-15T16:52:46;22.02;;;15.25;;
9942;SDS011;5010;45.080;7.634;2024-01-15T16:55:14;24.30;;;14.88;;
9942;SDS011;5010;45.080;7.634;2024-01-15T16:57:42;25.27;;;14.15;;
9942;SDS011;5010;45.080;7.634;2024-01-15T17:00:12;25.60;;;14.68;;
9942;SDS011;5010;45.080;7.634;2024-01-15T17:02:40;25.35;;;16.25;;
9942;SDS011;5010;45.080;7.634;2024-01-15T17:05:09;22.30;;;13.60;;
9942;SDS011;5010;45.080;7.634;2024-01-15T17:07:36;16.45;;;12.02;;
9942;SDS011;5010;45.080;7.634;2024-01-15T17:10:05;17.38;;;11.13;;
9942;SDS011;5010;45.080;7.634;2024-01-15T17:12:33;14.82;;;10.85;;
9942;SDS011;5010;45.080;7.634;2024-01-15T17:15:01;13.77;;;8.57;;
9942;SDS011;5010;45.080;7.634;2024-01-15T17:17:31;17.50;;;9.00;;
9942;SDS011;5010;45.080;7.634;2024-01-15T17:19:59;20.88;;;10.73;;
9942;SDS011;5010;45.080;7.634;2024-01-15T17:22:28;17.98;;;11.02;;